createdAt,value
2022-12-16T00:00:21.838Z,93370.72
2022-12-16T00:03:30.994Z,93381.19
2022-12-16T00:06:39.392Z,93378.41
2022-12-16T00:09:49.035Z,93387.84
2022-12-16T00:12:57.275Z,93388.75
2022-12-16T00:16:08.107Z,93383.63
2022-12-16T00:19:16.705Z,93390.69
2022-12-16T00:22:25.282Z,93380.94
2022-12-16T00:25:34.982Z,93382.34
2022-12-16T00:28:44.125Z,93379.91
2022-12-16T00:31:52.571Z,93387.06
2022-12-16T00:35:02.230Z,93392.41
2022-12-16T00:38:10.594Z,93381.03
2022-12-16T00:41:20.504Z,93381.28
2022-12-16T00:44:28.797Z,93385.53
2022-12-16T00:47:41.024Z,93379.31
2022-12-16T00:50:55.123Z,93378.41
2022-12-16T00:54:03.762Z,93390.34
2022-12-16T00:57:13.714Z,93394.28
2022-12-16T01:00:22.457Z,93402.16
2022-12-16T01:03:30.801Z,93406.06
2022-12-16T01:06:39.087Z,93410.91
2022-12-16T01:09:47.371Z,93417.78
2022-12-16T01:12:56.956Z,93414.34
2022-12-16T01:16:05.797Z,93415.34
2022-12-16T01:19:14.027Z,93412.94
2022-12-16T01:22:23.646Z,93428.28
2022-12-16T01:25:32.028Z,93435.16
2022-12-16T01:28:41.621Z,93445.19
2022-12-16T01:31:49.952Z,93435.97
2022-12-16T01:35:00.571Z,93450.41
2022-12-16T01:38:08.818Z,93454.47
2022-12-16T01:41:19.205Z,93450.63
2022-12-16T01:44:29.004Z,93442.00
2022-12-16T01:47:37.326Z,93449.81
2022-12-16T01:50:46.787Z,93453.56
2022-12-16T01:54:03.003Z,93452.25
2022-12-16T01:57:16.745Z,93449.75
2022-12-16T02:00:26.541Z,93442.63
2022-12-16T02:03:38.287Z,93441.25
2022-12-16T02:06:46.842Z,93448.38
2022-12-16T02:09:57.185Z,93454.00
2022-12-16T02:13:19.408Z,93446.78
2022-12-16T02:16:37.784Z,93455.44
2022-12-16T02:20:36.135Z,93457.41
2022-12-16T02:24:31.802Z,93450.44
2022-12-16T02:28:02.217Z,93452.84
2022-12-16T02:31:27.640Z,93459.22
2022-12-16T02:34:47.109Z,93459.41
2022-12-16T02:38:22.377Z,93471.59
2022-12-16T02:41:44.837Z,93476.03
2022-12-16T02:45:02.543Z,93484.47
2022-12-16T02:52:59.810Z,93503.38
2022-12-16T02:56:26.935Z,93503.00
2022-12-16T02:59:45.079Z,93502.84
2022-12-16T03:03:02.291Z,93502.84
2022-12-16T03:06:15.052Z,93502.75
2022-12-16T03:09:30.484Z,93505.78
2022-12-16T03:12:44.627Z,93506.94
2022-12-16T03:15:59.477Z,93507.75
2022-12-16T03:19:12.550Z,93497.63
2022-12-16T03:22:28.981Z,93488.34
2022-12-16T03:25:45.164Z,93484.19
2022-12-16T03:29:02.669Z,93486.09
2022-12-16T03:32:18.890Z,93484.94
2022-12-16T03:35:34.459Z,93488.38
2022-12-16T03:38:46.600Z,93493.78
2022-12-16T03:41:57.543Z,93493.69
2022-12-16T03:45:09.352Z,93496.03
2022-12-16T03:48:20.521Z,93504.16
2022-12-16T03:51:28.928Z,93506.50
2022-12-16T03:54:37.163Z,93511.81
2022-12-16T03:57:46.913Z,93533.16
2022-12-16T04:00:56.329Z,93532.00
2022-12-16T04:04:06.959Z,93523.63
2022-12-16T04:07:24.766Z,93534.66
2022-12-16T04:10:50.837Z,93535.81
2022-12-16T04:14:18.364Z,93543.72
2022-12-16T04:17:44.013Z,93550.75
2022-12-16T04:21:14.817Z,93560.47
2022-12-16T04:24:30.936Z,93560.97
2022-12-16T04:27:39.219Z,93575.28
2022-12-16T04:30:48.796Z,93569.94
2022-12-16T04:34:26.256Z,93576.47
2022-12-16T04:38:03.411Z,93575.31
2022-12-16T04:41:29.560Z,93575.56
2022-12-16T04:44:55.709Z,93577.84
2022-12-16T04:48:23.532Z,93576.34
2022-12-16T04:51:49.129Z,93577.81
2022-12-16T04:55:14.648Z,93592.69
2022-12-16T04:58:40.423Z,93589.25
2022-12-16T05:02:06.389Z,93600.72
2022-12-16T05:05:33.658Z,93610.28
2022-12-16T05:08:59.433Z,93613.06
2022-12-16T05:12:25.094Z,93634.13
2022-12-16T05:15:50.722Z,93631.84
2022-12-16T05:19:12.872Z,93624.50
2022-12-16T05:22:40.302Z,93635.44
2022-12-16T05:26:06.217Z,93640.31
2022-12-16T05:29:32.090Z,93639.81
2022-12-16T05:32:57.590Z,93647.16
2022-12-16T05:36:24.300Z,93654.72
2022-12-16T05:39:51.459Z,93639.38
2022-12-16T05:43:17.475Z,93637.56
2022-12-16T05:46:43.511Z,93645.56
2022-12-16T05:50:09.472Z,93648.03
2022-12-16T05:53:35.197Z,93659.44
2022-12-16T05:57:10.981Z,93665.50
2022-12-16T06:00:37.565Z,93676.75
2022-12-16T06:04:03.593Z,93676.44
2022-12-16T06:07:29.477Z,93683.78
2022-12-16T06:10:55.144Z,93693.91
2022-12-16T06:14:22.394Z,93693.09
2022-12-16T06:17:48.152Z,93697.50
2022-12-16T06:21:14.019Z,93714.97
2022-12-16T06:24:39.772Z,93721.69
2022-12-16T06:28:09.794Z,93719.22
2022-12-16T06:31:36.744Z,93733.28
2022-12-16T06:35:02.776Z,93731.47
2022-12-16T06:38:28.799Z,93737.53
2022-12-16T06:41:54.878Z,93739.31
2022-12-16T06:45:20.610Z,93743.88
2022-12-16T06:48:44.007Z,93749.25
2022-12-16T06:52:24.357Z,93747.81
2022-12-16T06:55:59.602Z,93753.38
2022-12-16T06:59:25.146Z,93756.13
2022-12-16T07:02:50.994Z,93765.28
2022-12-16T07:06:17.996Z,93772.59
2022-12-16T07:09:43.831Z,93784.97
2022-12-16T07:13:09.795Z,93798.03
2022-12-16T07:16:35.653Z,93794.31
2022-12-16T07:20:01.214Z,93785.28
2022-12-16T07:23:28.460Z,93800.75
2022-12-16T07:26:54.384Z,93815.00
2022-12-16T07:30:20.224Z,93820.56
2022-12-16T07:33:46.146Z,93831.38
2022-12-16T07:37:11.814Z,93840.00
2022-12-16T07:40:38.746Z,93841.19
2022-12-16T07:44:04.422Z,93855.41
2022-12-16T07:47:30.332Z,93854.72
2022-12-16T07:50:56.506Z,93858.50
2022-12-16T07:54:22.493Z,93853.06
2022-12-16T07:57:49.734Z,93862.09
2022-12-16T08:01:15.441Z,93857.81
2022-12-16T08:04:41.316Z,93861.88
2022-12-16T08:08:07.197Z,93869.34
2022-12-16T08:11:32.936Z,93887.50
2022-12-16T08:14:59.771Z,93896.97
2022-12-16T08:18:25.621Z,93909.09
2022-12-16T08:21:51.411Z,93899.53
2022-12-16T08:25:31.711Z,93901.66
2022-12-16T08:29:05.482Z,93914.06
2022-12-16T08:32:44.495Z,93920.88
2022-12-16T08:36:10.357Z,93925.53
2022-12-16T08:39:36.296Z,93927.28
2022-12-16T08:43:03.121Z,93934.41
2022-12-16T08:46:31.211Z,93933.75
2022-12-16T08:50:01.592Z,93938.66
2022-12-16T08:53:28.086Z,93937.22
2022-12-16T08:56:53.895Z,93942.88
2022-12-16T09:00:20.567Z,93948.16
2022-12-16T09:03:46.538Z,93953.25
2022-12-16T09:07:25.217Z,93961.41
2022-12-16T09:10:50.828Z,93970.22
2022-12-16T09:14:17.023Z,93970.50
2022-12-16T09:17:42.702Z,93976.38
2022-12-16T09:21:12.437Z,93983.63
2022-12-16T09:24:35.880Z,94001.56
2022-12-16T09:28:01.525Z,94005.19
2022-12-16T09:31:27.486Z,94004.78
2022-12-16T09:34:49.664Z,93994.97
2022-12-16T09:38:15.132Z,94007.72
2022-12-16T09:42:00.392Z,94019.63
2022-12-16T09:45:39.327Z,94024.69
2022-12-16T09:49:12.940Z,94020.81
2022-12-16T09:52:41.297Z,94020.69
2022-12-16T09:56:07.230Z,94022.38
2022-12-16T09:59:43.659Z,94031.72
2022-12-16T10:03:10.351Z,94029.06
2022-12-16T10:06:52.618Z,94035.31
2022-12-16T10:10:34.824Z,94030.16
2022-12-16T10:14:19.266Z,94034.59
2022-12-16T10:17:46.841Z,94035.44
2022-12-16T10:21:14.131Z,94043.97
2022-12-16T10:24:57.893Z,94049.66
2022-12-16T10:28:34.842Z,94061.94
2022-12-16T10:32:01.421Z,94056.34
2022-12-16T10:35:40.704Z,94056.75
2022-12-16T10:39:11.539Z,94053.91
2022-12-16T10:42:51.215Z,94059.16
2022-12-16T10:46:19.062Z,94054.56
2022-12-16T10:49:47.469Z,94061.53
2022-12-16T10:53:21.454Z,94066.16
2022-12-16T10:57:11.773Z,94061.97
2022-12-16T11:00:55.065Z,94071.94
2022-12-16T11:04:47.287Z,94086.47
2022-12-16T11:08:13.269Z,94078.69
2022-12-16T11:11:43.910Z,94081.94
2022-12-16T11:15:28.788Z,94080.50
2022-12-16T11:19:08.815Z,94086.75
2022-12-16T11:22:38.825Z,94087.56
2022-12-16T11:26:04.597Z,94080.03
2022-12-16T11:30:28.474Z,94069.16
2022-12-16T11:34:20.989Z,94084.47
2022-12-16T11:37:50.342Z,94094.38
2022-12-16T11:41:18.320Z,94084.41
2022-12-16T11:44:51.454Z,94086.19
2022-12-16T11:48:26.941Z,94089.50
2022-12-16T11:52:08.106Z,94094.38
2022-12-16T11:59:45.759Z,94082.31
2022-12-16T12:03:24.347Z,94091.28
2022-12-16T12:07:11.290Z,94104.69
2022-12-16T12:11:21.883Z,94106.56
2022-12-16T12:14:58.143Z,94099.34
2022-12-16T12:18:42.478Z,94103.22
2022-12-16T12:22:19.958Z,94116.00
2022-12-16T12:25:59.456Z,94117.34
2022-12-16T12:29:37.175Z,94114.25
2022-12-16T12:33:16.955Z,94121.06
2022-12-16T12:36:56.829Z,94126.97
2022-12-16T12:40:44.706Z,94130.81
2022-12-16T12:44:36.396Z,94134.06
2022-12-16T12:48:16.322Z,94138.53
2022-12-16T12:51:53.074Z,94147.31
2022-12-16T12:55:29.196Z,94141.06
2022-12-16T12:58:57.573Z,94148.94
2022-12-16T13:02:31.123Z,94146.44
2022-12-16T13:05:58.927Z,94148.59
2022-12-16T13:09:49.648Z,94151.88
2022-12-16T13:13:52.534Z,94157.94
2022-12-16T13:17:23.705Z,94163.94
2022-12-16T13:20:56.709Z,94170.25
2022-12-16T13:24:52.594Z,94177.94
2022-12-16T13:28:19.103Z,94168.41
2022-12-16T13:31:48.688Z,94181.72
2022-12-16T13:35:19.716Z,94177.41
2022-12-16T13:38:45.715Z,94187.25
2022-12-16T13:42:19.110Z,94203.00
2022-12-16T13:45:51.926Z,94208.53
2022-12-16T13:49:59.743Z,94205.25
2022-12-16T13:53:33.458Z,94210.16
2022-12-16T13:57:07.109Z,94214.56
2022-12-16T14:00:41.690Z,94215.78
2022-12-16T14:04:11.804Z,94226.22
2022-12-16T14:07:41.832Z,94235.34
2022-12-16T14:11:19.467Z,94241.31
2022-12-16T14:14:52.696Z,94249.22
2022-12-16T14:18:41.914Z,94255.91
2022-12-16T14:22:18.876Z,94259.84
2022-12-16T14:25:44.978Z,94266.56
2022-12-16T14:29:08.024Z,94272.47
2022-12-16T14:32:45.059Z,94282.78
2022-12-16T14:36:12.307Z,94283.28
2022-12-16T14:39:42.467Z,94279.47
2022-12-16T14:43:13.168Z,94296.16
2022-12-16T14:46:48.828Z,94295.06
2022-12-16T14:50:14.443Z,94303.25
2022-12-16T14:53:49.241Z,94311.78
2022-12-16T14:57:16.469Z,94312.66
2022-12-16T15:00:43.544Z,94318.28
2022-12-16T15:04:09.912Z,94320.25
2022-12-16T15:07:36.122Z,94331.47
2022-12-16T15:11:03.713Z,94331.34
2022-12-16T15:14:37.712Z,94337.28
2022-12-16T15:18:09.537Z,94339.06
2022-12-16T15:21:35.578Z,94339.78
2022-12-16T15:25:02.627Z,94347.13
2022-12-16T15:28:55.564Z,94349.41
2022-12-16T15:32:21.513Z,94360.19
2022-12-16T15:35:51.523Z,94369.50
2022-12-16T15:39:17.423Z,94369.91
2022-12-16T15:42:47.172Z,94369.63
2022-12-16T15:46:14.473Z,94384.09
2022-12-16T15:49:51.036Z,94376.25
2022-12-16T15:53:35.882Z,94394.53
2022-12-16T15:57:04.050Z,94397.84
2022-12-16T16:00:41.913Z,94401.72
2022-12-16T16:04:12.198Z,94401.16
2022-12-16T16:07:41.027Z,94415.03
2022-12-16T16:11:07.166Z,94412.41
2022-12-16T16:14:32.789Z,94413.63
2022-12-16T16:17:58.586Z,94418.91
2022-12-16T16:21:25.818Z,94425.91
2022-12-16T16:24:51.652Z,94429.31
2022-12-16T16:28:17.656Z,94431.09
2022-12-16T16:31:43.526Z,94436.31
2022-12-16T16:35:10.269Z,94442.34
2022-12-16T16:38:37.470Z,94448.13
2022-12-16T16:42:03.733Z,94447.03
2022-12-16T16:45:30.468Z,94455.16
2022-12-16T16:48:56.507Z,94463.38
2022-12-16T16:52:22.055Z,94455.53
2022-12-16T16:55:49.176Z,94472.56
2022-12-16T17:03:05.244Z,94486.03
2022-12-16T17:06:31.333Z,94487.69
2022-12-16T17:09:57.319Z,94491.81
2022-12-16T17:13:24.948Z,94493.31
2022-12-16T17:16:51.037Z,94503.75
2022-12-16T17:20:16.688Z,94511.72
2022-12-16T17:23:42.514Z,94512.94
2022-12-16T17:27:23.163Z,94506.63
2022-12-16T17:31:05.513Z,94513.63
2022-12-16T17:34:31.522Z,94517.75
2022-12-16T17:37:57.617Z,94525.00
2022-12-16T17:41:23.809Z,94542.34
2022-12-16T17:44:49.693Z,94535.47
2022-12-16T17:48:16.785Z,94543.72
2022-12-16T17:51:43.542Z,94546.19
2022-12-16T17:55:09.618Z,94553.91
2022-12-16T17:58:35.525Z,94557.84
2022-12-16T18:02:01.400Z,94560.19
2022-12-16T18:05:36.674Z,94559.94
2022-12-16T18:09:05.121Z,94569.13
2022-12-16T18:12:30.839Z,94566.09
2022-12-16T18:15:56.940Z,94577.63
2022-12-16T18:19:22.831Z,94580.09
2022-12-16T18:22:50.512Z,94585.72
2022-12-16T18:26:20.188Z,94588.47
2022-12-16T18:29:46.520Z,94597.00
2022-12-16T18:33:12.533Z,94609.38
2022-12-16T18:36:38.548Z,94606.31
2022-12-16T18:40:06.006Z,94604.00
2022-12-16T18:43:32.112Z,94612.09
2022-12-16T18:46:58.068Z,94617.56
2022-12-16T18:50:29.417Z,94622.66
2022-12-16T18:53:56.467Z,94618.69
2022-12-16T18:57:23.350Z,94625.28
2022-12-16T19:00:49.296Z,94636.28
2022-12-16T19:04:16.380Z,94639.56
2022-12-16T19:07:44.082Z,94639.84
2022-12-16T19:11:11.966Z,94641.47
2022-12-16T19:14:39.760Z,94643.78
2022-12-16T19:18:05.630Z,94635.97
2022-12-16T19:21:32.160Z,94637.03
2022-12-16T19:24:57.984Z,94645.25
2022-12-16T19:28:23.811Z,94655.38
2022-12-16T19:31:51.838Z,94672.16
2022-12-16T19:35:18.025Z,94665.59
2022-12-16T19:38:44.342Z,94673.97
2022-12-16T19:42:12.113Z,94686.59
2022-12-16T19:45:38.170Z,94682.50
2022-12-16T19:49:05.403Z,94692.25
2022-12-16T19:52:31.079Z,94689.22
2022-12-16T19:55:57.016Z,94694.03
2022-12-16T19:59:22.822Z,94691.03
2022-12-16T20:02:50.471Z,94701.88
2022-12-16T20:06:26.540Z,94703.13
2022-12-16T20:09:54.766Z,94710.66
2022-12-16T20:13:30.079Z,94713.72
2022-12-16T20:16:59.242Z,94721.09
2022-12-16T20:20:26.449Z,94724.28
2022-12-16T20:23:54.272Z,94729.75
2022-12-16T20:27:20.465Z,94730.88
2022-12-16T20:30:46.320Z,94739.13
2022-12-16T20:34:13.134Z,94746.53
2022-12-16T20:37:51.656Z,94750.25
2022-12-16T20:41:21.603Z,94762.03
2022-12-16T20:44:47.843Z,94759.41
2022-12-16T20:48:14.399Z,94758.41
2022-12-16T20:51:40.716Z,94764.28
2022-12-16T20:55:06.398Z,94765.19
2022-12-16T20:58:38.830Z,94768.81
2022-12-16T21:05:50.660Z,94784.41
2022-12-16T21:09:18.194Z,94793.19
2022-12-16T21:12:44.001Z,94799.28
2022-12-16T21:16:15.876Z,94805.19
2022-12-16T21:19:42.361Z,94804.09
2022-12-16T21:23:15.665Z,94808.38
2022-12-16T21:26:41.793Z,94815.56
2022-12-16T21:30:07.944Z,94816.44
2022-12-16T21:33:38.807Z,94832.50
2022-12-16T21:37:04.502Z,94835.03
2022-12-16T21:40:36.349Z,94831.72
2022-12-16T21:44:02.308Z,94837.66
2022-12-16T21:47:28.191Z,94849.28
2022-12-16T21:50:55.846Z,94844.31
2022-12-16T21:54:22.907Z,94854.38
2022-12-16T21:57:48.975Z,94861.63
2022-12-16T22:01:17.179Z,94856.16
2022-12-16T22:04:43.577Z,94866.59
2022-12-16T22:08:13.243Z,94872.81
2022-12-16T22:11:39.481Z,94874.84
2022-12-16T22:15:05.515Z,94879.81
2022-12-16T22:18:31.809Z,94886.44
2022-12-16T22:21:57.995Z,94889.75
2022-12-16T22:25:26.256Z,94896.31
2022-12-16T22:28:52.155Z,94904.97
2022-12-16T22:32:18.177Z,94904.97
2022-12-16T22:35:44.301Z,94900.69
2022-12-16T22:39:06.857Z,94909.91
2022-12-16T22:42:33.966Z,94908.38
2022-12-16T22:45:59.778Z,94920.09
2022-12-16T22:49:25.444Z,94912.19
2022-12-16T22:53:00.117Z,94916.69
2022-12-16T22:56:26.450Z,94909.66
2022-12-16T22:59:53.985Z,94912.63
2022-12-16T23:03:20.395Z,94918.72
2022-12-16T23:06:46.419Z,94932.34
2022-12-16T23:10:11.952Z,94933.09
2022-12-16T23:13:37.822Z,94940.16
2022-12-16T23:17:05.535Z,94946.31
2022-12-16T23:20:31.226Z,94950.22
2022-12-16T23:23:57.221Z,94951.88
2022-12-16T23:27:23.259Z,94954.13
2022-12-16T23:30:48.975Z,94958.19
2022-12-16T23:34:15.809Z,94963.41
2022-12-16T23:37:42.443Z,94960.81
2022-12-16T23:41:11.194Z,94961.88
2022-12-16T23:44:37.240Z,94960.50
2022-12-16T23:48:03.629Z,94957.78
2022-12-16T23:51:39.345Z,94965.97
2022-12-16T23:55:16.583Z,94960.44
2022-12-16T23:58:42.443Z,94970.50
